Time;durP1;ratioP1;P1;durP2;ratioP2;P2;SDS_P1;SDS_P2;PMS_P1;PMS_P2;Temp;Humidity;BMP_temperature;BMP_pressure;BME280_temperature;BME280_humidity;BME280_pressure;Samples;Min_cycle;Max_cycle;Signal;HPM_P1;HPM_P2
2022/09/12 00:01:11;;;;;;;;;;;24.50;99.90;;;;;;5056545;28;20087;-72
2022/09/12 00:03:39;;;;;;;4.93;0.90;;;24.60;99.90;;;;;;5054483;28;19921;-72
2022/09/12 00:06:16;;;;;;;6.35;1.00;;;24.60;99.90;;;;;;5055773;28;20036;-72
2022/09/12 00:08:42;;;;;;;;;;;24.60;99.90;;;;;;5056447;28;20086;-71
2022/09/12 00:11:10;;;;;;;4.63;1.00;;;24.60;99.90;;;;;;5055743;28;19905;-72
2022/09/12 00:13:38;;;;;;;4.68;1.15;;;24.60;99.90;;;;;;5055670;28;20025;-72
2022/09/12 00:16:05;;;;;;;4.43;1.10;;;24.60;99.90;;;;;;5055613;28;20032;-71
2022/09/12 00:18:31;;;;;;;;;;;24.60;99.90;;;;;;5056494;28;20032;-72
2022/09/12 00:21:01;;;;;;;;;;;24.60;99.90;;;;;;5055953;28;19905;-72
2022/09/12 00:23:27;;;;;;;3.78;0.70;;;24.60;99.90;;;;;;5055386;28;19913;-71
2022/09/12 00:25:53;;;;;;;5.65;1.00;;;24.50;99.90;;;;;;5055933;28;20061;-72
2022/09/12 00:28:19;;;;;;;6.05;1.10;;;24.50;99.90;;;;;;5055889;28;20055;-71
2022/09/12 00:30:47;;;;;;;5.32;1.10;;;24.60;99.90;;;;;;5055423;28;20052;-71
2022/09/12 00:33:16;;;;;;;7.22;0.90;;;24.60;99.90;;;;;;5055197;28;20025;-72
2022/09/12 00:35:48;;;;;;;2.95;0.90;;;24.50;99.90;;;;;;5055740;28;20106;-72
2022/09/12 00:38:15;;;;;;;6.80;1.30;;;24.50;99.90;;;;;;5055490;28;20025;-71
2022/09/12 00:40:42;;;;;;;3.05;0.70;;;24.60;99.90;;;;;;5055770;28;20032;-71
2022/09/12 00:43:14;;;;;;;;;;;24.60;99.90;;;;;;5055461;28;20041;-71
2022/09/12 00:45:41;;;;;;;3.17;0.98;;;24.60;99.90;;;;;;5055101;28;20281;-71
2022/09/12 00:48:21;;;;;;;4.53;1.10;;;24.50;99.90;;;;;;5055032;28;20120;-71
2022/09/12 00:50:47;;;;;;;5.45;1.02;;;24.50;99.90;;;;;;5055348;28;20017;-71
2022/09/12 00:53:14;;;;;;;4.13;1.00;;;24.50;99.90;;;;;;5055270;28;20124;-70
2022/09/12 00:55:42;;;;;;;4.40;0.90;;;24.60;99.90;;;;;;5053529;28;20025;-72
2022/09/12 00:58:35;;;;;;;3.67;1.00;;;24.50;99.90;;;;;;5053112;28;20311;-71
2022/09/12 01:01:01;;;;;;;5.15;1.10;;;24.50;99.90;;;;;;5055129;28;20057;-70
2022/09/12 01:03:27;;;;;;;;;;;24.40;99.90;;;;;;5054900;28;20090;-71
2022/09/12 01:06:04;;;;;;;4.63;1.17;;;24.50;99.90;;;;;;5053251;28;19905;-70
2022/09/12 01:08:36;;;;;;;5.47;1.02;;;24.40;99.90;;;;;;5055137;28;20064;-70
2022/09/12 01:11:03;;;;;;;3.03;0.90;;;24.40;99.90;;;;;;5054975;28;20052;-70
2022/09/12 01:13:31;;;;;;;4.15;1.00;;;24.40;99.90;;;;;;5054902;28;20033;-70
2022/09/12 01:15:57;;;;;;;2.55;0.85;;;24.40;99.90;;;;;;5054670;28;20053;-70
2022/09/12 01:18:28;;;;;;;7.05;1.13;;;24.40;99.90;;;;;;5054407;28;20025;-71
2022/09/12 01:21:24;;;;;;;3.28;1.05;;;24.40;99.90;;;;;;5054427;28;20477;-70
2022/09/12 01:24:23;;;;;;;6.65;1.17;;;24.40;99.90;;;;;;5054495;28;20032;-70
2022/09/12 01:26:58;;;;;;;3.92;1.10;;;24.40;99.90;;;;;;5054303;28;20033;-70
2022/09/12 01:29:50;;;;;;;4.50;0.95;;;24.50;99.90;;;;;;5054206;28;20078;-70
2022/09/12 01:32:33;;;;;;;6.00;1.30;;;24.40;99.90;;;;;;5045734;28;20107;-71
2022/09/12 01:35:06;;;;;;;6.05;1.30;;;24.40;99.90;;;;;;5054662;28;20032;-71
2022/09/12 01:37:44;;;;;;;7.00;1.10;;;24.40;99.90;;;;;;5053990;28;20029;-71
2022/09/12 01:40:25;;;;;;;4.90;1.05;;;24.40;99.90;;;;;;5054102;28;20076;-71
2022/09/12 01:43:20;;;;;;;5.57;1.08;;;24.40;99.90;;;;;;5054424;28;20033;-71
2022/09/12 01:45:57;;;;;;;4.70;1.05;;;24.40;99.90;;;;;;5053961;28;20055;-71
2022/09/12 01:48:34;;;;;;;7.55;1.10;;;24.40;99.90;;;;;;5054344;28;20131;-71
2022/09/12 01:51:26;;;;;;;7.15;1.20;;;24.40;99.90;;;;;;5053905;28;20116;-71
2022/09/12 01:54:14;;;;;;;3.83;0.80;;;24.30;99.90;;;;;;5054137;28;20515;-71
2022/09/12 01:56:43;;;;;;;6.47;1.30;;;24.30;99.90;;;;;;5053678;28;20102;-71
2022/09/12 01:59:35;;;;;;;6.35;0.98;;;24.30;99.90;;;;;;5054098;28;20083;-71
2022/09/12 02:02:07;;;;;;;5.43;1.02;;;24.30;99.90;;;;;;5051012;28;20037;-71
2022/09/12 02:04:47;;;;;;;7.38;1.27;;;24.20;99.90;;;;;;5053394;28;20056;-71
2022/09/12 02:07:27;;;;;;;5.50;0.88;;;24.30;99.90;;;;;;5054053;28;20438;-71
2022/09/12 02:10:01;;;;;;;4.80;0.95;;;24.20;99.90;;;;;;5051403;28;20036;-71
2022/09/12 02:12:36;;;;;;;5.60;1.13;;;24.30;99.90;;;;;;5053989;28;20107;-71
2022/09/12 02:15:07;;;;;;;3.92;1.10;;;24.30;99.90;;;;;;5053639;28;20107;-71
2022/09/12 02:17:40;;;;;;;4.45;1.10;;;24.30;99.90;;;;;;5053411;28;20052;-71
2022/09/12 02:20:31;;;;;;;4.72;1.10;;;24.30;99.90;;;;;;5053565;28;20481;-71
2022/09/12 02:22:59;;;;;;;3.80;0.90;;;24.30;99.90;;;;;;5053538;28;20547;-71
2022/09/12 02:25:28;;;;;;;4.15;1.02;;;24.20;99.90;;;;;;5053461;28;20024;-71
2022/09/12 02:27:57;;;;;;;4.22;0.85;;;24.20;99.90;;;;;;5053670;28;20025;-71
2022/09/12 02:30:24;;;;;;;5.20;1.00;;;24.20;99.90;;;;;;5052923;28;20041;-71
2022/09/12 02:32:53;;;;;;;3.30;0.90;;;24.20;99.90;;;;;;5053122;28;20099;-71
2022/09/12 02:35:38;;;;;;;5.15;1.00;;;24.20;99.90;;;;;;5051596;28;20048;-71
2022/09/12 02:38:13;;;;;;;4.67;0.90;;;24.20;99.90;;;;;;5053271;28;20091;-71
2022/09/12 02:40:39;;;;;;;4.25;1.00;;;24.20;99.90;;;;;;5053182;28;20267;-71
2022/09/12 02:43:06;;;;;;;;;;;24.20;99.90;;;;;;5053623;28;20029;-71
2022/09/12 02:45:33;;;;;;;;;;;24.20;99.90;;;;;;5053311;28;19904;-71
2022/09/12 02:48:20;;;;;;;5.57;0.98;;;24.20;99.90;;;;;;5052794;28;19912;-71
2022/09/12 02:50:46;;;;;;;5.82;1.05;;;24.20;99.90;;;;;;5053139;28;20086;-71
2022/09/12 02:53:12;;;;;;;4.35;1.00;;;24.20;99.90;;;;;;5053099;28;20018;-71
2022/09/12 02:55:40;;;;;;;3.15;0.90;;;24.20;99.90;;;;;;5052781;28;20063;-71
2022/09/12 02:58:12;;;;;;;7.30;1.10;;;24.20;99.90;;;;;;5052502;28;20025;-71
2022/09/12 03:00:50;;;;;;;4.07;1.10;;;24.20;99.90;;;;;;5053113;28;20119;-71
2022/09/12 03:03:35;;;;;;;4.53;1.10;;;24.20;99.90;;;;;;5052857;28;20044;-71
2022/09/12 03:06:08;;;;;;;4.00;1.00;;;24.10;99.90;;;;;;5052815;28;20025;-71
2022/09/12 03:09:06;;;;;;;7.97;1.30;;;24.10;99.90;;;;;;5052643;28;20032;-71
2022/09/12 03:11:44;;;;;;;6.72;0.90;;;24.10;99.90;;;;;;5051074;28;20377;-71
2022/09/12 03:14:35;;;;;;;6.47;1.23;;;24.10;99.90;;;;;;5052571;28;20032;-71
2022/09/12 03:17:16;;;;;;;4.78;1.00;;;24.00;99.90;;;;;;5052117;28;20021;-71
2022/09/12 03:19:46;;;;;;;4.68;1.10;;;24.00;99.90;;;;;;5052467;28;20021;-71
2022/09/12 03:22:31;;;;;;;6.10;1.30;;;24.00;99.90;;;;;;5052000;28;20040;-71
2022/09/12 03:25:40;;;;;;;5.80;0.95;;;24.00;99.90;;;;;;5053200;28;20171;-71
2022/09/12 03:28:14;;;;;;;5.03;1.30;;;24.00;99.90;;;;;;5030785;28;20041;-71
2022/09/12 03:30:47;;;;;;;5.88;1.00;;;24.00;99.90;;;;;;5030681;28;20053;-71
2022/09/12 03:33:17;;;;;;;7.97;1.00;;;24.00;99.90;;;;;;5013724;28;20445;-71
2022/09/12 03:35:43;;;;;;;4.28;1.10;;;24.00;99.90;;;;;;5030360;28;20026;-71
2022/09/12 03:38:09;;;;;;;;;;;24.00;99.90;;;;;;5030590;28;20037;-71
2022/09/12 03:40:36;;;;;;;5.07;1.08;;;24.00;99.90;;;;;;5030801;28;19905;-72
2022/09/12 03:43:05;;;;;;;5.63;1.20;;;24.00;99.90;;;;;;5030286;28;20117;-72
2022/09/12 03:45:31;;;;;;;3.63;1.00;;;24.00;99.90;;;;;;5030064;28;20064;-71
2022/09/12 03:47:58;;;;;;;8.93;1.20;;;24.00;99.90;;;;;;5030450;28;20098;-71
2022/09/12 03:50:24;;;;;;;5.47;0.98;;;24.00;99.90;;;;;;5030808;28;20040;-71
2022/09/12 03:52:50;;;;;;;9.40;1.17;;;24.10;99.90;;;;;;5030222;28;20060;-71
2022/09/12 03:55:16;;;;;;;6.78;1.10;;;24.00;99.90;;;;;;5030697;28;20355;-71
2022/09/12 03:57:43;;;;;;;6.10;1.30;;;24.00;99.90;;;;;;5032021;28;20030;-71
2022/09/12 04:00:10;;;;;;;3.13;0.90;;;24.00;99.90;;;;;;5050809;28;20021;-71
2022/09/12 04:02:36;;;;;;;5.68;1.13;;;23.90;99.90;;;;;;5052278;28;20021;-71
2022/09/12 04:05:03;;;;;;;4.65;1.23;;;23.90;99.90;;;;;;5052091;28;20109;-71
2022/09/12 04:07:29;;;;;;;4.43;0.85;;;24.00;99.90;;;;;;5052383;28;20108;-71
2022/09/12 04:09:55;;;;;;;2.60;0.82;;;23.90;99.90;;;;;;5052553;28;20037;-72
2022/09/12 04:12:21;;;;;;;5.47;1.20;;;23.90;99.90;;;;;;5052523;28;20056;-70
2022/09/12 04:14:48;;;;;;;6.28;0.95;;;24.00;99.90;;;;;;5052243;28;20063;-71
2022/09/12 04:17:14;;;;;;;;;;;23.90;99.90;;;;;;5052809;28;20021;-71
2022/09/12 04:19:40;;;;;;;4.45;1.00;;;24.00;99.90;;;;;;5052671;28;19931;-71
2022/09/12 04:22:06;;;;;;;7.10;1.15;;;23.90;99.90;;;;;;5052587;28;20447;-71
2022/09/12 04:24:32;;;;;;;4.53;1.08;;;23.90;99.90;;;;;;5053137;28;20033;-71
2022/09/12 04:26:58;;;;;;;4.80;1.05;;;23.90;99.90;;;;;;5052670;28;20044;-71
2022/09/12 04:29:24;;;;;;;6.95;1.30;;;24.00;99.90;;;;;;5051199;28;20029;-71
2022/09/12 04:31:50;;;;;;;4.97;1.02;;;23.90;99.90;;;;;;5051019;28;20083;-71
2022/09/12 04:34:17;;;;;;;5.47;1.13;;;23.80;99.90;;;;;;5055755;28;20021;-71
2022/09/12 04:36:43;;;;;;;5.03;1.10;;;23.80;99.90;;;;;;5056083;28;20060;-71
2022/09/12 04:39:10;;;;;;;7.40;1.20;;;23.80;99.90;;;;;;5056302;28;20021;-71
2022/09/12 04:41:38;;;;;;;7.53;1.23;;;23.80;99.90;;;;;;5056016;28;20056;-71
2022/09/12 04:44:07;;;;;;;3.88;0.98;;;23.90;99.90;;;;;;5056130;28;20040;-71
2022/09/12 04:46:36;;;;;;;5.45;1.20;;;23.90;99.90;;;;;;5056180;28;20115;-71
2022/09/12 04:49:03;;;;;;;6.07;1.00;;;23.80;99.90;;;;;;5055821;28;20025;-71
2022/09/12 04:51:30;;;;;;;;;;;23.80;99.90;;;;;;5056846;28;20025;-71
2022/09/12 04:54:09;;;;;;;5.78;1.20;;;23.80;99.90;;;;;;5055757;28;20277;-71
2022/09/12 04:56:40;;;;;;;5.53;1.40;;;23.80;99.90;;;;;;5056194;28;20025;-71
2022/09/12 04:59:07;;;;;;;4.75;1.08;;;23.90;99.90;;;;;;5054372;28;20354;-71
2022/09/12 05:01:34;;;;;;;7.60;1.52;;;23.90;99.90;;;;;;5055622;28;20024;-71
2022/09/12 05:04:01;;;;;;;7.45;1.60;;;23.90;99.90;;;;;;5055693;28;20052;-71
2022/09/12 05:06:30;;;;;;;6.45;1.40;;;24.00;99.90;;;;;;5055790;28;20052;-71
2022/09/12 05:08:57;;;;;;;3.47;1.52;;;24.00;99.90;;;;;;5055275;28;20029;-70
2022/09/12 05:11:26;;;;;;;5.13;1.48;;;24.00;99.90;;;;;;5055251;28;20479;-71
2022/09/12 05:13:53;;;;;;;6.78;1.63;;;24.00;99.90;;;;;;5054896;28;20025;-70
2022/09/12 05:16:20;;;;;;;10.25;1.50;;;24.10;99.90;;;;;;5055492;28;20029;-71
2022/09/12 05:18:47;;;;;;;6.47;1.40;;;24.10;99.90;;;;;;5054992;28;20083;-71
2022/09/12 05:21:21;;;;;;;6.97;1.50;;;24.10;99.90;;;;;;5054747;28;20100;-70
2022/09/12 05:23:50;;;;;;;7.85;1.33;;;24.10;99.90;;;;;;5054485;28;20519;-70
2022/09/12 05:26:19;;;;;;;4.15;1.10;;;24.20;99.90;;;;;;5054900;28;20013;-70
2022/09/12 05:28:46;;;;;;;10.80;1.50;;;24.20;99.90;;;;;;5054018;28;20029;-70
2022/09/12 05:31:13;;;;;;;7.82;1.40;;;24.30;99.90;;;;;;5053741;28;20104;-70
2022/09/12 05:33:42;;;;;;;10.65;1.55;;;24.50;99.90;;;;;;5054314;28;20039;-70
2022/09/12 05:36:16;;;;;;;5.55;1.10;;;25.50;99.90;;;;;;5054311;28;20480;-71
2022/09/12 05:38:43;;;;;;;3.08;0.98;;;26.70;99.90;;;;;;5054441;28;20017;-71
2022/09/12 05:41:14;;;;;;;5.07;0.98;;;28.00;99.90;;;;;;5053955;28;20428;-71
2022/09/12 05:43:41;;;;;;;8.70;1.13;;;29.30;99.90;;;;;;5054195;28;20488;-71
2022/09/12 05:46:11;;;;;;;3.97;0.98;;;30.30;99.90;;;;;;5053523;28;20057;-71
2022/09/12 05:48:39;;;;;;;6.32;1.38;;;31.00;99.90;;;;;;5053297;28;20103;-71
2022/09/12 05:51:11;;;;;;;4.57;1.00;;;32.00;99.90;;;;;;5054020;28;20027;-71
2022/09/12 05:53:39;;;;;;;5.13;0.88;;;32.70;99.90;;;;;;5054007;28;20025;-71
2022/09/12 05:56:10;;;;;;;4.45;1.10;;;33.40;99.90;;;;;;5053308;28;20070;-71
2022/09/12 05:58:39;;;;;;;6.55;1.15;;;33.40;99.90;;;;;;5054118;28;20098;-72
2022/09/12 06:01:16;;;;;;;4.53;0.90;;;34.30;99.90;;;;;;5053601;28;20017;-72
2022/09/12 06:03:48;;;;;;;5.30;0.90;;;35.00;99.90;;;;;;5035910;28;20041;-72
2022/09/12 06:06:17;;;;;;;4.50;1.10;;;35.60;99.90;;;;;;5053684;28;20075;-72
2022/09/12 06:08:46;;;;;;;5.07;1.02;;;35.80;99.90;;;;;;5053809;28;20029;-71
2022/09/12 06:11:15;;;;;;;3.88;0.93;;;37.30;99.30;;;;;;5053915;28;20028;-72
2022/09/12 06:13:43;;;;;;;5.50;1.20;;;37.60;98.50;;;;;;5052927;28;20489;-72
2022/09/12 06:16:12;;;;;;;5.65;1.00;;;37.30;98.20;;;;;;5051095;28;20033;-72
2022/09/12 06:18:39;;;;;;;6.63;1.13;;;37.50;98.30;;;;;;5053015;28;20107;-72
2022/09/12 06:21:08;;;;;;;9.02;1.20;;;37.60;97.70;;;;;;5052676;28;20021;-72
2022/09/12 06:23:35;;;;;;;6.05;0.75;;;38.30;97.50;;;;;;5052621;28;20450;-72
2022/09/12 06:26:03;;;;;;;12.20;1.20;;;37.20;97.60;;;;;;5052464;28;20156;-71
2022/09/12 06:28:30;;;;;;;3.92;0.93;;;36.90;98.00;;;;;;5052821;28;20449;-71
2022/09/12 06:31:03;;;;;;;3.80;0.80;;;36.30;98.50;;;;;;5052100;28;20071;-71
2022/09/12 06:33:32;;;;;;;4.28;1.10;;;36.20;98.30;;;;;;5051034;28;20444;-72
2022/09/12 06:36:10;;;;;;;6.25;0.90;;;36.20;98.60;;;;;;5050925;28;20477;-71
2022/09/12 06:38:37;;;;;;;5.50;1.00;;;36.90;97.80;;;;;;5052378;28;20036;-71
2022/09/12 06:41:12;;;;;;;6.40;1.15;;;37.40;97.60;;;;;;5051462;28;20021;-72
2022/09/12 06:43:40;;;;;;;4.20;1.00;;;38.10;96.70;;;;;;5051807;28;20085;-72
2022/09/12 06:46:12;;;;;;;4.63;0.80;;;38.60;96.30;;;;;;5051505;28;20031;-72
2022/09/12 06:48:38;;;;;;;5.57;1.08;;;37.50;96.70;;;;;;5050659;28;20029;-71
2022/09/12 06:51:08;;;;;;;6.60;1.00;;;36.40;97.30;;;;;;5052026;28;20044;-71
2022/09/12 06:53:38;;;;;;;7.82;1.20;;;35.90;98.10;;;;;;5051774;28;20031;-71
2022/09/12 06:56:12;;;;;;;6.05;1.10;;;36.10;97.80;;;;;;5051049;28;20029;-72
2022/09/12 06:58:38;;;;;;;6.63;1.23;;;36.80;97.20;;;;;;5051988;28;20047;-71
2022/09/12 07:01:16;;;;;;;6.30;1.13;;;37.60;96.50;;;;;;5050702;28;20024;-71
2022/09/12 07:03:47;;;;;;;6.68;1.20;;;37.50;96.20;;;;;;5052264;28;20032;-71
2022/09/12 07:06:15;;;;;;;5.28;1.40;;;35.70;97.20;;;;;;5052265;28;20021;-71
2022/09/12 07:08:41;;;;;;;5.45;1.55;;;34.90;98.20;;;;;;5052138;28;20025;-71
2022/09/12 07:11:10;;;;;;;6.15;1.33;;;34.40;98.40;;;;;;5052487;28;20025;-71
2022/09/12 07:13:37;;;;;;;8.13;1.48;;;34.40;98.50;;;;;;5052019;28;20021;-72
2022/09/12 07:16:04;;;;;;;6.00;1.35;;;35.00;97.60;;;;;;5052229;28;20021;-73
2022/09/12 07:18:32;;;;;;;4.97;1.20;;;35.40;97.20;;;;;;5051990;28;20434;-72
2022/09/12 07:21:02;;;;;;;6.07;1.08;;;36.10;96.70;;;;;;5052111;28;20057;-72
2022/09/12 07:23:31;;;;;;;5.53;1.40;;;36.70;96.70;;;;;;5052068;28;20060;-71
2022/09/12 07:25:58;;;;;;;7.03;1.50;;;36.40;96.10;;;;;;5052352;28;20027;-72
2022/09/12 07:28:26;;;;;;;2.78;1.10;;;36.10;96.40;;;;;;5051459;28;20330;-71
2022/09/12 07:30:52;;;;;;;3.63;1.15;;;36.00;96.40;;;;;;5051880;28;20136;-72
2022/09/12 07:33:20;;;;;;;5.78;1.10;;;35.50;96.90;;;;;;5052537;28;20029;-73
2022/09/12 07:35:46;;;;;;;5.38;1.48;;;35.20;97.30;;;;;;5051346;28;20068;-72
2022/09/12 07:38:12;;;;;;;8.38;1.60;;;34.80;97.40;;;;;;5050872;28;20029;-72
2022/09/12 07:40:39;;;;;;;5.60;1.40;;;34.80;97.80;;;;;;5051982;28;20029;-72
2022/09/12 07:43:05;;;;;;;8.00;1.40;;;34.80;97.30;;;;;;5050861;28;20041;-71
2022/09/12 07:45:31;;;;;;;;;;;34.60;97.30;;;;;;5052865;28;20025;-72
2022/09/12 07:47:57;;;;;;;6.30;1.30;;;34.20;97.70;;;;;;5052125;28;19905;-71
2022/09/12 07:50:24;;;;;;;8.65;1.30;;;33.90;97.80;;;;;;5051849;28;20055;-71
2022/09/12 07:52:52;;;;;;;5.47;1.00;;;33.50;98.30;;;;;;5051274;28;20053;-72
2022/09/12 07:55:18;;;;;;;6.38;1.60;;;33.70;98.40;;;;;;5050802;28;20072;-71
2022/09/12 07:57:44;;;;;;;;;;;33.90;98.00;;;;;;5049334;28;20052;-71
2022/09/12 08:00:10;;;;;;;7.00;1.85;;;34.10;98.00;;;;;;5051168;28;20328;-70
2022/09/12 08:02:36;;;;;;;5.28;1.20;;;34.20;97.70;;;;;;5050332;28;20400;-71
2022/09/12 08:05:02;;;;;;;;;;;34.10;97.80;;;;;;5050850;28;20029;-72
2022/09/12 08:07:28;;;;;;;6.88;1.30;;;34.10;97.20;;;;;;5049130;28;19904;-71
2022/09/12 08:09:54;;;;;;;5.75;1.52;;;34.30;97.10;;;;;;5053073;28;20025;-71
2022/09/12 08:12:20;;;;;;;;;;;34.20;97.80;;;;;;5053446;28;20149;-71
2022/09/12 08:14:47;;;;;;;5.45;1.25;;;34.00;97.80;;;;;;5054778;28;19995;-72
2022/09/12 08:17:13;;;;;;;6.55;1.52;;;33.70;98.20;;;;;;5055026;28;20029;-72
2022/09/12 08:19:39;;;;;;;12.68;1.70;;;33.50;98.30;;;;;;5055282;28;20013;-72
2022/09/12 08:22:14;;;;;;;;;;;33.60;98.30;;;;;;5055655;28;20029;-72
2022/09/12 08:24:40;;;;;;;5.30;1.13;;;33.40;98.50;;;;;;5055442;28;19912;-72
2022/09/12 08:27:07;;;;;;;5.45;1.52;;;33.10;98.80;;;;;;5055708;28;20120;-72
2022/09/12 08:29:33;;;;;;;6.30;1.27;;;33.40;98.60;;;;;;5055147;28;20021;-72
2022/09/12 08:31:59;;;;;;;7.32;1.15;;;33.40;98.60;;;;;;5055137;28;20120;-71
2022/09/12 08:34:27;;;;;;;6.13;1.30;;;33.50;98.00;;;;;;5055621;28;20665;-72
2022/09/12 08:36:53;;;;;;;;;;;33.50;98.40;;;;;;5054303;28;20025;-72
2022/09/12 08:39:20;;;;;;;7.13;1.20;;;33.60;97.90;;;;;;5054851;28;19918;-72
2022/09/12 08:41:54;;;;;;;8.27;1.73;;;33.80;97.50;;;;;;5054947;28;20029;-72
2022/09/12 08:44:53;;;;;;;5.28;1.30;;;33.80;97.60;;;;;;5055282;28;20488;-72
2022/09/12 08:47:35;;;;;;;7.18;1.23;;;33.80;97.20;;;;;;5055125;28;20021;-72
2022/09/12 08:50:10;;;;;;;7.90;1.25;;;34.00;97.10;;;;;;5055177;28;20534;-72
2022/09/12 08:52:42;;;;;;;5.32;1.15;;;34.00;96.90;;;;;;5054864;28;20048;-72
2022/09/12 08:58:27;;;;;;;3.85;0.93;;;33.80;96.60;;;;;;5054540;28;20523;-72
2022/09/12 09:01:10;;;;;;;3.72;1.08;;;33.50;96.00;;;;;;5054619;28;20029;-72
2022/09/12 09:04:09;;;;;;;7.15;1.30;;;33.50;96.20;;;;;;5054262;28;20029;-72
2022/09/12 09:06:41;;;;;;;5.82;1.00;;;33.30;96.40;;;;;;5053990;28;20049;-72
2022/09/12 09:09:29;;;;;;;4.50;0.90;;;33.40;96.00;;;;;;5054600;28;20029;-72
2022/09/12 09:12:13;;;;;;;5.53;1.00;;;33.40;96.50;;;;;;5054263;28;20021;-72
2022/09/12 09:15:04;;;;;;;10.18;1.30;;;33.10;97.20;;;;;;5053791;28;20035;-72
2022/09/12 09:17:42;;;;;;;4.57;1.00;;;33.10;97.10;;;;;;5051946;28;20078;-72
2022/09/12 09:20:35;;;;;;;4.43;1.20;;;32.60;97.70;;;;;;5053988;28;20029;-72
2022/09/12 09:23:27;;;;;;;6.00;1.00;;;32.60;98.00;;;;;;5054273;28;20025;-72
2022/09/12 09:26:13;;;;;;;5.03;1.00;;;32.40;98.60;;;;;;5054340;28;20029;-72
2022/09/12 09:28:42;;;;;;;4.20;0.98;;;32.30;98.40;;;;;;5052868;28;20040;-72
2022/09/12 09:31:18;;;;;;;53.78;2.95;;;32.40;98.00;;;;;;5053630;28;20064;-72
2022/09/12 09:33:48;;;;;;;6.13;1.00;;;32.30;98.40;;;;;;5054140;28;20100;-72
2022/09/12 09:36:21;;;;;;;9.38;1.25;;;32.20;98.50;;;;;;5053700;28;20442;-72
2022/09/12 09:39:12;;;;;;;6.88;1.20;;;32.30;98.40;;;;;;5052497;28;20243;-73
2022/09/12 09:42:03;;;;;;;7.10;1.40;;;32.30;98.80;;;;;;5054273;28;20017;-72
2022/09/12 09:44:30;;;;;;;6.43;1.10;;;32.40;98.80;;;;;;5054086;28;20116;-71
2022/09/12 09:46:58;;;;;;;3.17;0.85;;;32.30;98.40;;;;;;5053678;28;20024;-71
2022/09/12 09:49:28;;;;;;;5.43;0.98;;;32.10;97.70;;;;;;5053604;28;20079;-71
2022/09/12 09:51:57;;;;;;;8.60;1.02;;;32.10;98.40;;;;;;5052430;28;20024;-72
2022/09/12 09:54:34;;;;;;;8.15;1.13;;;31.90;99.90;;;;;;5054423;28;20021;-73
2022/09/12 09:57:00;;;;;;;5.18;1.00;;;31.70;98.40;;;;;;5053601;28;20295;-72
2022/09/12 09:59:32;;;;;;;5.43;1.27;;;31.60;98.80;;;;;;5053753;28;20490;-72
2022/09/12 10:02:13;;;;;;;8.63;1.20;;;31.70;98.40;;;;;;5053899;28;20063;-72
2022/09/12 10:04:51;;;;;;;4.93;1.08;;;31.70;97.50;;;;;;5052112;28;20044;-72
2022/09/12 10:07:20;;;;;;;9.05;1.20;;;31.60;98.00;;;;;;5053154;28;20070;-72
2022/09/12 10:10:15;;;;;;;4.38;1.10;;;31.60;98.20;;;;;;5053266;28;20083;-72
2022/09/12 10:12:42;;;;;;;7.72;1.02;;;31.70;97.80;;;;;;5053636;28;20037;-72
2022/09/12 10:15:21;;;;;;;4.85;1.02;;;31.70;98.30;;;;;;5051364;28;20029;-70
2022/09/12 10:17:49;;;;;;;3.22;0.88;;;31.70;99.00;;;;;;5053158;28;20130;-70
2022/09/12 10:20:40;;;;;;;5.55;0.90;;;31.70;98.60;;;;;;5053073;28;20021;-71
2022/09/12 10:23:16;;;;;;;4.03;0.88;;;31.90;98.50;;;;;;5049176;28;20473;-71
2022/09/12 10:25:46;;;;;;;6.90;0.90;;;31.90;98.30;;;;;;5051137;28;20120;-71
2022/09/12 10:28:30;;;;;;;6.25;1.40;;;32.10;98.60;;;;;;5052840;28;20048;-72
2022/09/12 10:30:58;;;;;;;6.32;1.15;;;32.20;98.70;;;;;;5051845;28;20052;-72
2022/09/12 10:33:25;;;;;;;4.03;0.80;;;32.20;99.30;;;;;;5053204;28;20047;-72
2022/09/12 10:35:53;;;;;;;6.53;0.90;;;32.20;98.50;;;;;;5053122;28;20025;-70
2022/09/12 10:38:26;;;;;;;5.68;1.02;;;32.20;98.70;;;;;;5052911;28;20446;-73
2022/09/12 10:41:00;;;;;;;4.97;0.93;;;32.00;99.40;;;;;;5052904;28;20052;-71
2022/09/12 10:44:13;;;;;;;7.40;1.30;;;32.00;99.50;;;;;;5052692;28;20040;-73
2022/09/12 10:46:39;;;;;;;12.32;1.23;;;31.80;99.10;;;;;;5052706;28;20024;-73
2022/09/12 10:49:26;;;;;;;2.70;1.20;;;32.00;99.70;;;;;;5052340;28;20029;-72
2022/09/12 10:51:53;;;;;;;5.60;1.08;;;32.20;99.90;;;;;;5052870;28;20028;-72
2022/09/12 10:54:23;;;;;;;6.82;1.33;;;32.10;99.90;;;;;;5052665;28;20111;-72
2022/09/12 10:57:05;;;;;;;7.13;1.25;;;32.20;99.90;;;;;;5052785;28;20086;-71
2022/09/12 10:59:37;;;;;;;6.38;1.27;;;32.20;99.90;;;;;;5050700;28;20111;-72
2022/09/12 11:02:43;;;;;;;3.88;1.13;;;32.20;99.90;;;;;;5052514;28;20116;-72
2022/09/12 11:05:21;;;;;;;8.27;1.20;;;32.00;99.90;;;;;;5050886;28;20037;-72
2022/09/12 11:07:56;;;;;;;8.82;1.15;;;32.10;99.90;;;;;;5052675;28;20021;-72
2022/09/12 11:10:42;;;;;;;7.85;1.10;;;32.20;99.90;;;;;;5052724;28;20478;-72
2022/09/12 11:13:49;;;;;;;3.17;0.80;;;32.00;99.90;;;;;;5052407;28;20029;-72
2022/09/12 11:16:21;;;;;;;4.75;1.05;;;31.70;99.90;;;;;;5050592;28;20025;-72
2022/09/12 11:19:27;;;;;;;3.88;1.10;;;31.70;99.90;;;;;;5050969;28;20473;-72
2022/09/12 11:21:59;;;;;;;5.35;0.82;;;31.80;99.90;;;;;;5050707;28;20096;-72
2022/09/12 11:24:31;;;;;;;4.50;1.00;;;32.00;99.90;;;;;;5051164;28;20048;-72
2022/09/12 11:27:25;;;;;;;6.60;1.00;;;31.80;99.90;;;;;;5050690;28;20441;-72
2022/09/12 11:30:09;;;;;;;6.22;1.30;;;31.90;99.90;;;;;;5052019;28;20674;-72
2022/09/12 11:32:51;;;;;;;4.88;0.98;;;31.90;99.90;;;;;;5052132;28;20034;-72
2022/09/12 11:35:29;;;;;;;3.17;0.90;;;32.10;99.90;;;;;;5050986;28;20029;-72
2022/09/12 11:38:25;;;;;;;6.00;1.45;;;32.20;99.90;;;;;;5052676;28;20400;-72
2022/09/12 11:41:01;;;;;;;6.10;1.13;;;32.20;99.90;;;;;;5052061;28;20085;-72
2022/09/12 11:43:45;;;;;;;;;;;32.20;99.90;;;;;;5056353;28;20458;-73
2022/09/12 11:46:18;;;;;;;5.57;1.05;;;32.30;99.90;;;;;;5057000;28;20001;-72
2022/09/12 11:49:12;;;;;;;4.50;0.90;;;32.40;99.90;;;;;;5055970;28;20040;-72
2022/09/12 11:51:53;;;;;;;5.57;1.30;;;32.50;99.90;;;;;;5051829;28;20051;-71
2022/09/12 11:54:43;;;;;;;3.45;0.85;;;32.50;99.90;;;;;;5056425;28;20025;-71
2022/09/12 11:57:34;;;;;;;5.13;1.05;;;32.30;99.90;;;;;;5053951;28;20136;-71
2022/09/12 12:00:07;;;;;;;3.28;0.90;;;32.40;99.90;;;;;;5056564;28;20021;-71
2022/09/12 12:02:47;;;;;;;6.65;1.42;;;32.40;99.90;;;;;;5056289;28;20024;-71
2022/09/12 12:05:21;;;;;;;5.10;1.10;;;32.40;99.90;;;;;;5056380;28;20063;-71
2022/09/12 12:07:55;;;;;;;5.00;1.02;;;32.20;99.90;;;;;;5055992;28;20025;-71
2022/09/12 12:10:50;;;;;;;6.32;1.27;;;32.30;99.90;;;;;;5055901;28;20097;-71
2022/09/12 12:13:18;;;;;;;;;;;32.40;99.90;;;;;;5056475;28;20017;-72
2022/09/12 12:15:51;;;;;;;6.65;1.20;;;32.40;99.90;;;;;;5056067;28;20242;-71
2022/09/12 12:18:29;;;;;;;7.95;1.65;;;32.50;99.90;;;;;;5056538;28;20029;-72
2022/09/12 12:21:14;;;;;;;5.05;1.00;;;32.50;99.90;;;;;;5056251;28;20033;-71
2022/09/12 12:23:56;;;;;;;;;;;32.60;99.70;;;;;;5056662;28;20043;-71
2022/09/12 12:26:59;;;;;;;4.55;1.00;;;32.50;99.90;;;;;;5056338;28;19911;-71
2022/09/12 12:29:35;;;;;;;4.85;1.65;;;32.60;99.90;;;;;;5054962;28;20116;-71
2022/09/12 12:32:02;;;;;;;9.25;2.83;;;32.60;99.80;;;;;;5056316;28;20044;-71
2022/09/12 12:34:36;;;;;;;13.07;2.40;;;32.60;99.80;;;;;;5056331;28;20021;-71
2022/09/12 12:37:20;;;;;;;5.22;1.60;;;32.40;99.00;;;;;;5056279;28;20051;-71
2022/09/12 12:39:49;;;;;;;5.28;1.10;;;32.50;99.50;;;;;;5055667;28;20024;-71
2022/09/12 12:42:34;;;;;;;5.18;1.15;;;32.60;99.10;;;;;;5055630;28;20045;-71
2022/09/12 12:45:08;;;;;;;3.42;0.80;;;32.40;98.80;;;;;;5055551;28;20098;-71
2022/09/12 12:47:37;;;;;;;3.70;0.70;;;32.40;98.30;;;;;;5055331;28;20017;-71
2022/09/12 12:50:09;;;;;;;3.08;0.90;;;32.40;98.90;;;;;;5055751;28;20032;-71
2022/09/12 12:53:03;;;;;;;5.22;0.90;;;32.40;99.80;;;;;;5055293;28;20031;-71
2022/09/12 12:55:43;;;;;;;3.85;0.93;;;32.40;99.90;;;;;;5053941;28;20497;-71
2022/09/12 12:58:30;;;;;;;5.47;1.02;;;32.20;99.90;;;;;;5055947;28;20036;-71
2022/09/12 13:01:08;;;;;;;6.72;0.98;;;32.20;99.90;;;;;;5055431;28;20504;-71
2022/09/12 13:03:36;;;;;;;7.95;1.70;;;32.20;99.90;;;;;;5055139;28;20049;-72
2022/09/12 13:06:08;;;;;;;5.43;1.90;;;32.30;99.90;;;;;;5054930;28;20101;-71
2022/09/12 13:08:37;;;;;;;6.03;1.90;;;32.30;99.90;;;;;;5055523;28;20489;-71
2022/09/12 13:11:08;;;;;;;4.15;1.30;;;32.30;99.90;;;;;;5055151;28;20033;-72
2022/09/12 13:13:59;;;;;;;16.52;1.88;;;32.30;99.90;;;;;;5055145;28;20106;-72
2022/09/12 13:16:34;;;;;;;6.78;1.27;;;32.40;99.90;;;;;;5055474;28;20021;-72
2022/09/12 13:19:18;;;;;;;6.07;1.88;;;32.40;99.90;;;;;;5054980;28;20029;-71
2022/09/12 13:22:11;;;;;;;5.22;1.33;;;32.40;99.90;;;;;;5055657;28;20052;-71
2022/09/12 13:24:51;;;;;;;5.57;1.67;;;32.40;99.90;;;;;;5053846;28;20155;-72
2022/09/12 13:27:24;;;;;;;5.70;1.88;;;32.30;99.90;;;;;;5055102;28;20112;-71
2022/09/12 13:30:12;;;;;;;6.85;2.30;;;32.40;99.90;;;;;;5055268;28;20032;-71